sensor_id;sensor_type;location;lat;lon;timestamp;P1;durP1;ratioP1;P2;durP2;ratioP2
56043;SDS011;41912;51.022;3.664;2022-11-20T00:01:11;75.03;;;33.80;;
56043;SDS011;41912;51.022;3.664;2022-11-20T00:03:41;74.73;;;33.67;;
56043;SDS011;41912;51.022;3.664;2022-11-20T00:06:08;76.15;;;33.40;;
56043;SDS011;41912;51.022;3.664;2022-11-20T00:08:36;74.90;;;32.83;;
56043;SDS011;41912;51.022;3.664;2022-11-20T00:11:21;75.07;;;33.30;;
56043;SDS011;41912;51.022;3.664;2022-11-20T00:13:49;74.32;;;31.52;;
56043;SDS011;41912;51.022;3.664;2022-11-20T00:16:17;71.57;;;31.60;;
56043;SDS011;41912;51.022;3.664;2022-11-20T00:18:45;88.68;;;36.03;;
56043;SDS011;41912;51.022;3.664;2022-11-20T00:21:12;80.10;;;34.83;;
56043;SDS011;41912;51.022;3.664;2022-11-20T00:23:40;73.22;;;32.40;;
56043;SDS011;41912;51.022;3.664;2022-11-20T00:26:07;75.28;;;32.65;;
56043;SDS011;41912;51.022;3.664;2022-11-20T00:28:34;77.63;;;33.08;;
56043;SDS011;41912;51.022;3.664;2022-11-20T00:31:01;67.38;;;31.75;;
56043;SDS011;41912;51.022;3.664;2022-11-20T00:33:28;78.45;;;32.35;;
56043;SDS011;41912;51.022;3.664;2022-11-20T00:35:58;73.57;;;31.38;;
56043;SDS011;41912;51.022;3.664;2022-11-20T00:38:25;69.97;;;31.25;;
56043;SDS011;41912;51.022;3.664;2022-11-20T00:40:57;68.82;;;30.65;;
56043;SDS011;41912;51.022;3.664;2022-11-20T00:43:24;74.32;;;32.40;;
56043;SDS011;41912;51.022;3.664;2022-11-20T00:45:50;69.13;;;30.50;;
56043;SDS011;41912;51.022;3.664;2022-11-20T00:48:20;77.05;;;31.75;;
56043;SDS011;41912;51.022;3.664;2022-11-20T00:50:46;74.00;;;33.50;;
56043;SDS011;41912;51.022;3.664;2022-11-20T00:53:11;73.88;;;30.20;;
56043;SDS011;41912;51.022;3.664;2022-11-20T00:55:37;71.38;;;31.45;;
56043;SDS011;41912;51.022;3.664;2022-11-20T00:58:03;73.88;;;30.80;;
56043;SDS011;41912;51.022;3.664;2022-11-20T01:00:28;68.45;;;30.88;;
56043;SDS011;41912;51.022;3.664;2022-11-20T01:02:55;63.47;;;30.25;;
56043;SDS011;41912;51.022;3.664;2022-11-20T01:05:21;67.38;;;31.35;;
56043;SDS011;41912;51.022;3.664;2022-11-20T01:07:46;71.50;;;30.67;;
56043;SDS011;41912;51.022;3.664;2022-11-20T01:10:12;68.55;;;31.25;;
56043;SDS011;41912;51.022;3.664;2022-11-20T01:12:37;72.68;;;29.83;;
56043;SDS011;41912;51.022;3.664;2022-11-20T01:15:03;70.82;;;30.40;;
56043;SDS011;41912;51.022;3.664;2022-11-20T01:17:30;67.82;;;30.25;;
56043;SDS011;41912;51.022;3.664;2022-11-20T01:19:56;73.30;;;31.33;;
56043;SDS011;41912;51.022;3.664;2022-11-20T01:22:21;72.57;;;30.80;;
56043;SDS011;41912;51.022;3.664;2022-11-20T01:24:47;71.03;;;29.55;;
56043;SDS011;41912;51.022;3.664;2022-11-20T01:27:13;75.40;;;31.35;;
56043;SDS011;41912;51.022;3.664;2022-11-20T01:29:39;70.35;;;31.48;;
56043;SDS011;41912;51.022;3.664;2022-11-20T01:32:04;70.50;;;31.58;;
56043;SDS011;41912;51.022;3.664;2022-11-20T01:34:30;75.82;;;31.05;;
56043;SDS011;41912;51.022;3.664;2022-11-20T01:36:55;63.97;;;29.08;;
56043;SDS011;41912;51.022;3.664;2022-11-20T01:39:22;67.07;;;29.08;;
56043;SDS011;41912;51.022;3.664;2022-11-20T01:41:50;69.53;;;30.98;;
56043;SDS011;41912;51.022;3.664;2022-11-20T01:44:44;63.47;;;28.55;;
56043;SDS011;41912;51.022;3.664;2022-11-20T01:55:11;71.85;;;28.75;;
56043;SDS011;41912;51.022;3.664;2022-11-20T01:57:42;62.67;;;28.98;;
56043;SDS011;41912;51.022;3.664;2022-11-20T02:00:11;65.97;;;28.33;;
56043;SDS011;41912;51.022;3.664;2022-11-20T02:02:40;70.40;;;29.15;;
56043;SDS011;41912;51.022;3.664;2022-11-20T02:05:28;64.10;;;28.20;;
56043;SDS011;41912;51.022;3.664;2022-11-20T02:08:15;61.42;;;27.23;;
56043;SDS011;41912;51.022;3.664;2022-11-20T02:10:42;65.45;;;29.15;;
56043;SDS011;41912;51.022;3.664;2022-11-20T02:13:08;65.63;;;27.75;;
56043;SDS011;41912;51.022;3.664;2022-11-20T02:15:52;70.03;;;28.98;;
56043;SDS011;41912;51.022;3.664;2022-11-20T02:18:19;58.75;;;27.02;;
56043;SDS011;41912;51.022;3.664;2022-11-20T02:20:47;70.63;;;29.52;;
56043;SDS011;41912;51.022;3.664;2022-11-20T02:23:38;67.88;;;29.55;;
56043;SDS011;41912;51.022;3.664;2022-11-20T02:26:09;68.25;;;27.10;;
56043;SDS011;41912;51.022;3.664;2022-11-20T02:28:38;64.80;;;26.83;;
56043;SDS011;41912;51.022;3.664;2022-11-20T02:31:03;66.38;;;29.50;;
56043;SDS011;41912;51.022;3.664;2022-11-20T02:33:29;62.10;;;28.77;;
56043;SDS011;41912;51.022;3.664;2022-11-20T02:35:55;65.72;;;28.08;;
56043;SDS011;41912;51.022;3.664;2022-11-20T02:38:20;70.00;;;29.80;;
56043;SDS011;41912;51.022;3.664;2022-11-20T02:40:46;67.85;;;30.13;;
56043;SDS011;41912;51.022;3.664;2022-11-20T02:43:12;64.68;;;28.45;;
56043;SDS011;41912;51.022;3.664;2022-11-20T02:45:37;64.78;;;28.08;;
56043;SDS011;41912;51.022;3.664;2022-11-20T02:48:03;64.35;;;29.05;;
56043;SDS011;41912;51.022;3.664;2022-11-20T02:50:30;68.38;;;28.33;;
56043;SDS011;41912;51.022;3.664;2022-11-20T02:52:56;68.68;;;29.08;;
56043;SDS011;41912;51.022;3.664;2022-11-20T02:55:21;75.82;;;29.17;;
56043;SDS011;41912;51.022;3.664;2022-11-20T02:57:47;71.25;;;29.50;;
56043;SDS011;41912;51.022;3.664;2022-11-20T03:00:13;64.97;;;29.08;;
56043;SDS011;41912;51.022;3.664;2022-11-20T03:02:39;64.65;;;27.35;;
56043;SDS011;41912;51.022;3.664;2022-11-20T03:05:04;69.50;;;28.95;;
56043;SDS011;41912;51.022;3.664;2022-11-20T03:07:30;68.15;;;29.10;;
56043;SDS011;41912;51.022;3.664;2022-11-20T03:09:56;64.70;;;27.55;;
56043;SDS011;41912;51.022;3.664;2022-11-20T03:12:21;62.35;;;27.77;;
56043;SDS011;41912;51.022;3.664;2022-11-20T03:14:47;73.05;;;30.88;;
56043;SDS011;41912;51.022;3.664;2022-11-20T03:17:12;72.90;;;28.23;;
56043;SDS011;41912;51.022;3.664;2022-11-20T03:19:38;66.15;;;28.33;;
56043;SDS011;41912;51.022;3.664;2022-11-20T03:22:04;66.53;;;29.65;;
56043;SDS011;41912;51.022;3.664;2022-11-20T03:24:29;65.90;;;27.48;;
56043;SDS011;41912;51.022;3.664;2022-11-20T03:26:55;65.55;;;27.73;;
56043;SDS011;41912;51.022;3.664;2022-11-20T03:29:20;66.78;;;28.58;;
56043;SDS011;41912;51.022;3.664;2022-11-20T03:31:46;71.13;;;27.75;;
56043;SDS011;41912;51.022;3.664;2022-11-20T03:34:11;64.47;;;28.05;;
56043;SDS011;41912;51.022;3.664;2022-11-20T03:36:38;71.38;;;29.10;;
56043;SDS011;41912;51.022;3.664;2022-11-20T03:39:04;71.00;;;29.27;;
56043;SDS011;41912;51.022;3.664;2022-11-20T03:41:31;71.50;;;31.15;;
56043;SDS011;41912;51.022;3.664;2022-11-20T03:44:01;67.57;;;28.20;;
56043;SDS011;41912;51.022;3.664;2022-11-20T03:46:28;69.20;;;30.77;;
56043;SDS011;41912;51.022;3.664;2022-11-20T03:48:54;74.43;;;29.10;;
56043;SDS011;41912;51.022;3.664;2022-11-20T03:51:21;63.95;;;29.98;;
56043;SDS011;41912;51.022;3.664;2022-11-20T03:53:48;65.30;;;27.52;;
56043;SDS011;41912;51.022;3.664;2022-11-20T03:56:16;70.35;;;31.02;;
56043;SDS011;41912;51.022;3.664;2022-11-20T03:58:43;61.60;;;29.23;;
56043;SDS011;41912;51.022;3.664;2022-11-20T04:03:39;76.60;;;31.08;;
56043;SDS011;41912;51.022;3.664;2022-11-20T04:06:07;67.75;;;28.95;;
56043;SDS011;41912;51.022;3.664;2022-11-20T04:08:45;64.00;;;27.52;;
56043;SDS011;41912;51.022;3.664;2022-11-20T04:11:19;64.65;;;28.25;;
56043;SDS011;41912;51.022;3.664;2022-11-20T04:13:56;73.15;;;29.02;;
56043;SDS011;41912;51.022;3.664;2022-11-20T04:16:23;66.97;;;27.58;;
56043;SDS011;41912;51.022;3.664;2022-11-20T04:18:53;72.93;;;28.92;;
56043;SDS011;41912;51.022;3.664;2022-11-20T04:21:20;63.15;;;29.20;;
56043;SDS011;41912;51.022;3.664;2022-11-20T04:23:46;64.03;;;27.75;;
56043;SDS011;41912;51.022;3.664;2022-11-20T04:26:12;67.50;;;28.77;;
56043;SDS011;41912;51.022;3.664;2022-11-20T04:28:38;73.60;;;27.67;;
56043;SDS011;41912;51.022;3.664;2022-11-20T04:31:09;78.32;;;30.70;;
56043;SDS011;41912;51.022;3.664;2022-11-20T04:33:39;70.28;;;29.90;;
56043;SDS011;41912;51.022;3.664;2022-11-20T04:36:06;65.60;;;29.55;;
56043;SDS011;41912;51.022;3.664;2022-11-20T04:38:36;67.55;;;29.33;;
56043;SDS011;41912;51.022;3.664;2022-11-20T04:41:03;75.47;;;30.38;;
56043;SDS011;41912;51.022;3.664;2022-11-20T04:43:30;69.13;;;28.55;;
56043;SDS011;41912;51.022;3.664;2022-11-20T04:45:57;74.05;;;30.35;;
56043;SDS011;41912;51.022;3.664;2022-11-20T04:48:24;81.63;;;30.38;;
56043;SDS011;41912;51.022;3.664;2022-11-20T04:50:51;73.68;;;29.70;;
56043;SDS011;41912;51.022;3.664;2022-11-20T04:53:17;81.78;;;30.17;;
56043;SDS011;41912;51.022;3.664;2022-11-20T04:55:42;81.55;;;31.80;;
56043;SDS011;41912;51.022;3.664;2022-11-20T04:58:08;82.28;;;32.50;;
56043;SDS011;41912;51.022;3.664;2022-11-20T05:00:34;87.25;;;33.80;;
56043;SDS011;41912;51.022;3.664;2022-11-20T05:02:59;92.90;;;33.90;;
56043;SDS011;41912;51.022;3.664;2022-11-20T05:05:25;88.22;;;32.30;;
56043;SDS011;41912;51.022;3.664;2022-11-20T05:07:51;87.65;;;33.35;;
56043;SDS011;41912;51.022;3.664;2022-11-20T05:10:16;99.63;;;35.58;;
56043;SDS011;41912;51.022;3.664;2022-11-20T05:12:42;88.82;;;33.88;;
56043;SDS011;41912;51.022;3.664;2022-11-20T05:15:08;86.88;;;33.05;;
56043;SDS011;41912;51.022;3.664;2022-11-20T05:17:33;89.00;;;34.03;;
56043;SDS011;41912;51.022;3.664;2022-11-20T05:19:59;98.60;;;36.33;;
56043;SDS011;41912;51.022;3.664;2022-11-20T05:22:25;95.50;;;33.63;;
56043;SDS011;41912;51.022;3.664;2022-11-20T05:24:50;93.07;;;34.35;;
56043;SDS011;41912;51.022;3.664;2022-11-20T05:27:16;91.10;;;33.38;;
56043;SDS011;41912;51.022;3.664;2022-11-20T05:29:42;92.30;;;36.20;;
56043;SDS011;41912;51.022;3.664;2022-11-20T05:32:07;93.50;;;33.65;;
56043;SDS011;41912;51.022;3.664;2022-11-20T05:34:34;96.03;;;34.45;;
56043;SDS011;41912;51.022;3.664;2022-11-20T05:37:01;98.03;;;35.58;;
56043;SDS011;41912;51.022;3.664;2022-11-20T05:39:28;88.97;;;33.85;;
56043;SDS011;41912;51.022;3.664;2022-11-20T05:41:54;85.20;;;31.90;;
56043;SDS011;41912;51.022;3.664;2022-11-20T05:44:38;82.85;;;34.35;;
56043;SDS011;41912;51.022;3.664;2022-11-20T05:47:04;92.60;;;35.72;;
56043;SDS011;41912;51.022;3.664;2022-11-20T05:49:30;94.78;;;32.95;;
56043;SDS011;41912;51.022;3.664;2022-11-20T05:51:56;90.97;;;34.55;;
56043;SDS011;41912;51.022;3.664;2022-11-20T05:54:22;94.70;;;33.47;;
56043;SDS011;41912;51.022;3.664;2022-11-20T05:56:47;95.85;;;33.95;;
56043;SDS011;41912;51.022;3.664;2022-11-20T05:59:13;88.00;;;32.58;;
56043;SDS011;41912;51.022;3.664;2022-11-20T06:01:38;79.63;;;32.63;;
56043;SDS011;41912;51.022;3.664;2022-11-20T06:04:04;84.82;;;32.22;;
56043;SDS011;41912;51.022;3.664;2022-11-20T06:06:30;93.93;;;32.53;;
56043;SDS011;41912;51.022;3.664;2022-11-20T06:08:55;72.50;;;29.48;;
56043;SDS011;41912;51.022;3.664;2022-11-20T06:11:23;84.10;;;31.38;;
56043;SDS011;41912;51.022;3.664;2022-11-20T06:13:49;81.50;;;30.67;;
56043;SDS011;41912;51.022;3.664;2022-11-20T06:16:15;76.15;;;30.77;;
56043;SDS011;41912;51.022;3.664;2022-11-20T06:18:43;79.72;;;29.25;;
56043;SDS011;41912;51.022;3.664;2022-11-20T06:21:16;72.75;;;30.33;;
56043;SDS011;41912;51.022;3.664;2022-11-20T06:23:44;74.32;;;30.83;;
56043;SDS011;41912;51.022;3.664;2022-11-20T06:26:11;74.45;;;28.80;;
56043;SDS011;41912;51.022;3.664;2022-11-20T06:28:39;75.05;;;29.10;;
56043;SDS011;41912;51.022;3.664;2022-11-20T06:31:06;77.90;;;30.75;;
56043;SDS011;41912;51.022;3.664;2022-11-20T06:33:32;77.82;;;29.33;;
56043;SDS011;41912;51.022;3.664;2022-11-20T06:35:59;76.97;;;30.33;;
56043;SDS011;41912;51.022;3.664;2022-11-20T06:38:26;81.78;;;31.00;;
56043;SDS011;41912;51.022;3.664;2022-11-20T06:40:52;73.90;;;31.98;;
56043;SDS011;41912;51.022;3.664;2022-11-20T06:43:18;76.43;;;28.70;;
56043;SDS011;41912;51.022;3.664;2022-11-20T06:45:43;74.75;;;29.42;;
56043;SDS011;41912;51.022;3.664;2022-11-20T06:48:09;70.70;;;28.20;;
56043;SDS011;41912;51.022;3.664;2022-11-20T06:50:36;71.57;;;28.13;;
56043;SDS011;41912;51.022;3.664;2022-11-20T06:53:02;73.70;;;28.60;;
56043;SDS011;41912;51.022;3.664;2022-11-20T06:55:29;81.53;;;31.23;;
56043;SDS011;41912;51.022;3.664;2022-11-20T06:57:58;74.82;;;27.38;;
56043;SDS011;41912;51.022;3.664;2022-11-20T07:00:24;76.13;;;29.30;;
56043;SDS011;41912;51.022;3.664;2022-11-20T07:02:50;72.55;;;28.88;;
56043;SDS011;41912;51.022;3.664;2022-11-20T07:05:15;73.15;;;28.95;;
56043;SDS011;41912;51.022;3.664;2022-11-20T07:07:42;78.18;;;28.92;;
56043;SDS011;41912;51.022;3.664;2022-11-20T07:10:07;68.93;;;28.42;;
56043;SDS011;41912;51.022;3.664;2022-11-20T07:12:34;80.22;;;30.52;;
56043;SDS011;41912;51.022;3.664;2022-11-20T07:14:59;76.57;;;28.92;;
56043;SDS011;41912;51.022;3.664;2022-11-20T07:17:25;72.70;;;30.13;;
56043;SDS011;41912;51.022;3.664;2022-11-20T07:19:50;78.68;;;30.27;;
56043;SDS011;41912;51.022;3.664;2022-11-20T07:22:16;79.63;;;31.80;;
56043;SDS011;41912;51.022;3.664;2022-11-20T07:24:42;71.10;;;27.70;;
56043;SDS011;41912;51.022;3.664;2022-11-20T07:27:07;77.15;;;28.25;;
56043;SDS011;41912;51.022;3.664;2022-11-20T07:29:33;84.50;;;29.00;;
56043;SDS011;41912;51.022;3.664;2022-11-20T07:31:58;81.95;;;28.48;;
56043;SDS011;41912;51.022;3.664;2022-11-20T07:34:24;80.13;;;30.60;;
56043;SDS011;41912;51.022;3.664;2022-11-20T07:36:50;79.05;;;28.55;;
56043;SDS011;41912;51.022;3.664;2022-11-20T07:39:15;84.75;;;30.83;;
56043;SDS011;41912;51.022;3.664;2022-11-20T07:41:41;82.00;;;29.50;;
56043;SDS011;41912;51.022;3.664;2022-11-20T07:44:06;79.82;;;28.77;;
56043;SDS011;41912;51.022;3.664;2022-11-20T07:46:32;87.15;;;29.33;;
56043;SDS011;41912;51.022;3.664;2022-11-20T07:48:57;74.72;;;27.60;;
56043;SDS011;41912;51.022;3.664;2022-11-20T07:51:23;77.28;;;28.90;;
56043;SDS011;41912;51.022;3.664;2022-11-20T07:53:51;81.82;;;28.63;;
56043;SDS011;41912;51.022;3.664;2022-11-20T07:56:17;88.32;;;30.42;;
56043;SDS011;41912;51.022;3.664;2022-11-20T07:58:42;93.90;;;28.02;;
56043;SDS011;41912;51.022;3.664;2022-11-20T08:01:08;73.50;;;28.38;;
56043;SDS011;41912;51.022;3.664;2022-11-20T08:03:34;88.72;;;28.73;;
56043;SDS011;41912;51.022;3.664;2022-11-20T08:06:02;85.18;;;30.25;;
56043;SDS011;41912;51.022;3.664;2022-11-20T08:08:29;88.40;;;29.05;;
56043;SDS011;41912;51.022;3.664;2022-11-20T08:10:56;91.70;;;30.45;;
56043;SDS011;41912;51.022;3.664;2022-11-20T08:13:42;78.53;;;28.52;;
56043;SDS011;41912;51.022;3.664;2022-11-20T08:16:27;80.80;;;29.17;;
56043;SDS011;41912;51.022;3.664;2022-11-20T08:18:53;91.07;;;31.30;;
56043;SDS011;41912;51.022;3.664;2022-11-20T08:21:18;90.13;;;30.20;;
56043;SDS011;41912;51.022;3.664;2022-11-20T08:23:44;88.05;;;30.42;;
56043;SDS011;41912;51.022;3.664;2022-11-20T08:26:09;83.78;;;28.55;;
56043;SDS011;41912;51.022;3.664;2022-11-20T08:28:35;89.43;;;29.85;;
56043;SDS011;41912;51.022;3.664;2022-11-20T08:31:01;91.35;;;31.00;;
56043;SDS011;41912;51.022;3.664;2022-11-20T08:33:27;86.90;;;29.48;;
56043;SDS011;41912;51.022;3.664;2022-11-20T08:35:53;96.70;;;29.90;;
56043;SDS011;41912;51.022;3.664;2022-11-20T08:38:24;88.63;;;30.35;;
56043;SDS011;41912;51.022;3.664;2022-11-20T08:40:50;89.03;;;31.52;;
56043;SDS011;41912;51.022;3.664;2022-11-20T08:43:34;81.82;;;30.10;;
56043;SDS011;41912;51.022;3.664;2022-11-20T08:46:00;86.22;;;30.55;;
56043;SDS011;41912;51.022;3.664;2022-11-20T08:48:26;79.50;;;29.50;;
56043;SDS011;41912;51.022;3.664;2022-11-20T08:50:51;86.35;;;27.75;;
56043;SDS011;41912;51.022;3.664;2022-11-20T08:53:17;83.25;;;29.35;;
56043;SDS011;41912;51.022;3.664;2022-11-20T08:55:42;73.05;;;28.08;;
56043;SDS011;41912;51.022;3.664;2022-11-20T08:58:08;82.60;;;29.30;;
56043;SDS011;41912;51.022;3.664;2022-11-20T09:00:34;94.18;;;30.52;;
56043;SDS011;41912;51.022;3.664;2022-11-20T09:03:00;71.97;;;26.40;;
56043;SDS011;41912;51.022;3.664;2022-11-20T09:05:26;68.35;;;28.20;;
56043;SDS011;41912;51.022;3.664;2022-11-20T09:07:55;74.35;;;27.15;;
56043;SDS011;41912;51.022;3.664;2022-11-20T09:10:22;73.40;;;26.20;;
56043;SDS011;41912;51.022;3.664;2022-11-20T09:12:53;71.20;;;26.77;;
56043;SDS011;41912;51.022;3.664;2022-11-20T09:15:20;65.63;;;25.25;;
56043;SDS011;41912;51.022;3.664;2022-11-20T09:17:58;72.60;;;26.40;;
56043;SDS011;41912;51.022;3.664;2022-11-20T09:20:25;67.65;;;24.50;;
56043;SDS011;41912;51.022;3.664;2022-11-20T09:22:53;67.55;;;26.58;;
56043;SDS011;41912;51.022;3.664;2022-11-20T09:25:19;63.53;;;23.92;;
56043;SDS011;41912;51.022;3.664;2022-11-20T09:27:45;60.85;;;25.45;;
56043;SDS011;41912;51.022;3.664;2022-11-20T09:30:11;61.33;;;25.35;;
56043;SDS011;41912;51.022;3.664;2022-11-20T09:32:38;57.58;;;22.67;;
56043;SDS011;41912;51.022;3.664;2022-11-20T09:35:04;53.45;;;21.13;;
56043;SDS011;41912;51.022;3.664;2022-11-20T09:37:30;53.00;;;21.00;;
56043;SDS011;41912;51.022;3.664;2022-11-20T09:39:56;49.65;;;20.58;;
56043;SDS011;41912;51.022;3.664;2022-11-20T09:45:10;43.97;;;19.80;;
56043;SDS011;41912;51.022;3.664;2022-11-20T09:50:33;39.25;;;17.30;;
56043;SDS011;41912;51.022;3.664;2022-11-20T09:56:02;45.40;;;17.58;;
56043;SDS011;41912;51.022;3.664;2022-11-20T10:01:14;41.75;;;17.15;;
56043;SDS011;41912;51.022;3.664;2022-11-20T10:06:29;44.40;;;17.13;;
56043;SDS011;41912;51.022;3.664;2022-11-20T10:20:15;27.80;;;12.20;;
56043;SDS011;41912;51.022;3.664;2022-11-20T10:25:19;27.67;;;10.82;;
56043;SDS011;41912;51.022;3.664;2022-11-20T10:30:41;23.40;;;10.18;;
56043;SDS011;41912;51.022;3.664;2022-11-20T10:33:16;33.70;;;8.90;;
56043;SDS011;41912;51.022;3.664;2022-11-20T10:36:33;19.58;;;8.07;;
56043;SDS011;41912;51.022;3.664;2022-11-20T10:38:54;19.58;;;8.25;;
56043;SDS011;41912;51.022;3.664;2022-11-20T10:41:27;20.52;;;7.75;;
56043;SDS011;41912;51.022;3.664;2022-11-20T10:44:15;17.40;;;6.82;;
56043;SDS011;41912;51.022;3.664;2022-11-20T10:47:04;15.88;;;6.18;;
56043;SDS011;41912;51.022;3.664;2022-11-20T10:49:35;14.25;;;6.47;;
56043;SDS011;41912;51.022;3.664;2022-11-20T10:52:10;17.55;;;7.68;;
56043;SDS011;41912;51.022;3.664;2022-11-20T11:00:13;12.40;;;5.10;;
56043;SDS011;41912;51.022;3.664;2022-11-20T11:02:43;14.68;;;6.05;;
56043;SDS011;41912;51.022;3.664;2022-11-20T11:07:45;16.35;;;4.97;;
56043;SDS011;41912;51.022;3.664;2022-11-20T11:10:24;18.60;;;5.13;;
56043;SDS011;41912;51.022;3.664;2022-11-20T11:13:03;17.65;;;5.15;;
56043;SDS011;41912;51.022;3.664;2022-11-20T11:15:39;13.93;;;5.10;;
56043;SDS011;41912;51.022;3.664;2022-11-20T11:18:09;11.45;;;4.47;;
56043;SDS011;41912;51.022;3.664;2022-11-20T11:20:36;10.40;;;4.25;;
56043;SDS011;41912;51.022;3.664;2022-11-20T11:23:02;12.88;;;4.32;;
56043;SDS011;41912;51.022;3.664;2022-11-20T11:25:33;11.10;;;4.43;;
56043;SDS011;41912;51.022;3.664;2022-11-20T11:28:04;13.07;;;4.00;;
56043;SDS011;41912;51.022;3.664;2022-11-20T11:30:45;10.70;;;3.72;;
56043;SDS011;41912;51.022;3.664;2022-11-20T11:33:46;7.72;;;3.28;;
56043;SDS011;41912;51.022;3.664;2022-11-20T11:36:15;9.07;;;3.80;;
56043;SDS011;41912;51.022;3.664;2022-11-20T11:38:43;9.50;;;3.67;;
56043;SDS011;41912;51.022;3.664;2022-11-20T11:41:12;11.40;;;3.40;;
56043;SDS011;41912;51.022;3.664;2022-11-20T11:43:48;9.82;;;3.10;;
56043;SDS011;41912;51.022;3.664;2022-11-20T11:46:35;11.00;;;3.08;;
56043;SDS011;41912;51.022;3.664;2022-11-20T11:51:50;9.15;;;3.38;;
56043;SDS011;41912;51.022;3.664;2022-11-20T11:54:48;5.95;;;3.55;;
56043;SDS011;41912;51.022;3.664;2022-11-20T12:00:31;9.18;;;4.15;;
56043;SDS011;41912;51.022;3.664;2022-11-20T12:03:08;9.65;;;3.97;;
56043;SDS011;41912;51.022;3.664;2022-11-20T12:08:23;9.15;;;4.05;;
56043;SDS011;41912;51.022;3.664;2022-11-20T12:11:12;14.35;;;5.32;;
56043;SDS011;41912;51.022;3.664;2022-11-20T12:16:30;11.48;;;4.40;;
56043;SDS011;41912;51.022;3.664;2022-11-20T12:21:42;8.90;;;4.00;;
56043;SDS011;41912;51.022;3.664;2022-11-20T12:40:02;8.93;;;4.35;;
56043;SDS011;41912;51.022;3.664;2022-11-20T12:51:31;15.93;;;4.47;;
56043;SDS011;41912;51.022;3.664;2022-11-20T13:05:27;9.05;;;3.80;;
56043;SDS011;41912;51.022;3.664;2022-11-20T13:08:08;8.90;;;3.80;;
56043;SDS011;41912;51.022;3.664;2022-11-20T13:18:50;7.15;;;3.33;;
56043;SDS011;41912;51.022;3.664;2022-11-20T13:21:17;8.70;;;3.33;;
56043;SDS011;41912;51.022;3.664;2022-11-20T13:23:45;8.38;;;3.72;;
56043;SDS011;41912;51.022;3.664;2022-11-20T13:26:19;5.18;;;3.28;;
56043;SDS011;41912;51.022;3.664;2022-11-20T13:28:47;14.75;;;5.65;;
56043;SDS011;41912;51.022;3.664;2022-11-20T13:33:57;4.43;;;3.05;;
56043;SDS011;41912;51.022;3.664;2022-11-20T13:36:26;6.65;;;2.67;;
56043;SDS011;41912;51.022;3.664;2022-11-20T13:38:55;4.88;;;2.88;;
56043;SDS011;41912;51.022;3.664;2022-11-20T13:41:25;5.25;;;2.92;;
56043;SDS011;41912;51.022;3.664;2022-11-20T13:43:58;5.07;;;2.15;;
56043;SDS011;41912;51.022;3.664;2022-11-20T13:46:44;3.63;;;2.45;;
56043;SDS011;41912;51.022;3.664;2022-11-20T13:49:25;3.40;;;2.08;;
56043;SDS011;41912;51.022;3.664;2022-11-20T13:52:46;2.58;;;1.77;;
56043;SDS011;41912;51.022;3.664;2022-11-20T14:00:25;6.63;;;1.90;;
56043;SDS011;41912;51.022;3.664;2022-11-20T14:05:36;4.72;;;2.05;;
56043;SDS011;41912;51.022;3.664;2022-11-20T14:08:04;6.78;;;2.17;;
56043;SDS011;41912;51.022;3.664;2022-11-20T14:10:36;4.95;;;2.50;;
56043;SDS011;41912;51.022;3.664;2022-11-20T14:13:19;4.95;;;2.45;;
56043;SDS011;41912;51.022;3.664;2022-11-20T14:15:45;4.03;;;2.47;;
56043;SDS011;41912;51.022;3.664;2022-11-20T14:18:18;3.95;;;2.35;;
56043;SDS011;41912;51.022;3.664;2022-11-20T14:20:45;5.50;;;2.92;;
56043;SDS011;41912;51.022;3.664;2022-11-20T14:23:11;4.80;;;2.60;;
56043;SDS011;41912;51.022;3.664;2022-11-20T14:25:37;6.95;;;2.97;;
56043;SDS011;41912;51.022;3.664;2022-11-20T14:28:11;6.68;;;3.00;;
56043;SDS011;41912;51.022;3.664;2022-11-20T14:30:53;7.57;;;3.75;;
56043;SDS011;41912;51.022;3.664;2022-11-20T14:33:20;4.88;;;3.30;;
56043;SDS011;41912;51.022;3.664;2022-11-20T14:35:50;5.53;;;3.10;;
56043;SDS011;41912;51.022;3.664;2022-11-20T14:38:19;5.20;;;3.20;;
56043;SDS011;41912;51.022;3.664;2022-11-20T14:41:06;4.95;;;3.40;;
56043;SDS011;41912;51.022;3.664;2022-11-20T14:43:44;6.88;;;3.53;;
56043;SDS011;41912;51.022;3.664;2022-11-20T14:46:11;8.85;;;3.65;;
56043;SDS011;41912;51.022;3.664;2022-11-20T14:48:41;6.65;;;3.00;;
56043;SDS011;41912;51.022;3.664;2022-11-20T14:51:11;6.55;;;2.85;;
56043;SDS011;41912;51.022;3.664;2022-11-20T14:53:48;10.57;;;2.90;;
56043;SDS011;41912;51.022;3.664;2022-11-20T14:56:13;13.98;;;3.20;;
56043;SDS011;41912;51.022;3.664;2022-11-20T14:58:54;9.00;;;2.65;;
56043;SDS011;41912;51.022;3.664;2022-11-20T15:01:30;19.48;;;3.65;;
56043;SDS011;41912;51.022;3.664;2022-11-20T15:04:18;13.30;;;2.83;;
56043;SDS011;41912;51.022;3.664;2022-11-20T15:06:49;12.55;;;2.92;;
56043;SDS011;41912;51.022;3.664;2022-11-20T15:09:16;12.07;;;2.90;;
56043;SDS011;41912;51.022;3.664;2022-11-20T15:11:50;18.75;;;2.55;;
56043;SDS011;41912;51.022;3.664;2022-11-20T15:14:21;19.08;;;4.18;;
56043;SDS011;41912;51.022;3.664;2022-11-20T15:16:47;15.80;;;3.40;;
56043;SDS011;41912;51.022;3.664;2022-11-20T15:19:17;19.83;;;3.67;;
56043;SDS011;41912;51.022;3.664;2022-11-20T15:21:45;17.10;;;3.28;;
56043;SDS011;41912;51.022;3.664;2022-11-20T15:24:11;22.00;;;3.55;;
56043;SDS011;41912;51.022;3.664;2022-11-20T15:26:36;17.75;;;2.85;;
56043;SDS011;41912;51.022;3.664;2022-11-20T15:29:05;9.68;;;2.55;;
56043;SDS011;41912;51.022;3.664;2022-11-20T15:31:36;16.95;;;3.45;;
56043;SDS011;41912;51.022;3.664;2022-11-20T15:34:07;11.10;;;2.92;;
56043;SDS011;41912;51.022;3.664;2022-11-20T15:36:36;21.30;;;3.97;;
56043;SDS011;41912;51.022;3.664;2022-11-20T15:39:01;17.95;;;2.50;;
56043;SDS011;41912;51.022;3.664;2022-11-20T15:41:27;14.38;;;2.60;;
56043;SDS011;41912;51.022;3.664;2022-11-20T15:43:53;14.52;;;2.83;;
56043;SDS011;41912;51.022;3.664;2022-11-20T15:46:23;15.00;;;2.25;;
56043;SDS011;41912;51.022;3.664;2022-11-20T15:48:56;20.35;;;3.45;;
56043;SDS011;41912;51.022;3.664;2022-11-20T15:51:28;20.92;;;3.58;;
56043;SDS011;41912;51.022;3.664;2022-11-20T15:53:59;18.65;;;3.47;;
56043;SDS011;41912;51.022;3.664;2022-11-20T15:56:25;26.52;;;3.10;;
56043;SDS011;41912;51.022;3.664;2022-11-20T15:58:51;20.55;;;3.15;;
56043;SDS011;41912;51.022;3.664;2022-11-20T16:01:18;24.17;;;3.22;;
56043;SDS011;41912;51.022;3.664;2022-11-20T16:03:46;23.83;;;3.85;;
56043;SDS011;41912;51.022;3.664;2022-11-20T16:06:12;24.27;;;3.70;;
56043;SDS011;41912;51.022;3.664;2022-11-20T16:08:37;19.25;;;3.78;;
56043;SDS011;41912;51.022;3.664;2022-11-20T16:11:03;23.20;;;3.95;;
56043;SDS011;41912;51.022;3.664;2022-11-20T16:13:30;25.65;;;3.80;;
56043;SDS011;41912;51.022;3.664;2022-11-20T16:16:22;20.55;;;3.53;;
56043;SDS011;41912;51.022;3.664;2022-11-20T16:18:53;23.05;;;3.17;;
56043;SDS011;41912;51.022;3.664;2022-11-20T16:21:19;18.25;;;4.13;;
56043;SDS011;41912;51.022;3.664;2022-11-20T16:23:45;19.30;;;3.80;;
56043;SDS011;41912;51.022;3.664;2022-11-20T16:26:16;28.17;;;4.70;;
56043;SDS011;41912;51.022;3.664;2022-11-20T16:28:43;21.70;;;2.85;;
56043;SDS011;41912;51.022;3.664;2022-11-20T16:33:36;23.40;;;3.35;;
56043;SDS011;41912;51.022;3.664;2022-11-20T16:36:06;19.17;;;3.38;;
56043;SDS011;41912;51.022;3.664;2022-11-20T16:38:33;24.48;;;5.53;;
56043;SDS011;41912;51.022;3.664;2022-11-20T16:41:02;23.27;;;3.45;;